Terminal Aerodrome Forecast
Issued by NWS

Home | Current Version | Previous Version | Text Only | Print | Product List | Glossary On
Versions: 1 2 3 4 5 6 7 8 9 10 11 12 13 14 15 16 17
000
FTUS45 KTFX 290633 AAA
TAFGTF
TAF AMD
KGTF 290633Z 2907/3006 36006KT 3SM BR OVC005
      TEMPO 2907/2910 2SM BR OVC003
     FM291000 VRB05KT 2SM BR OVC010
      TEMPO 2910/2914 1SM BR BKN003
     FM291500 12007KT P6SM SCT020 BKN035
     FM291800 11011KT P6SM SCT040
     FM292300 09010KT P6SM VCSH SCT030 BKN060=

USA.gov is the U.S. government's official web portal to all federal, state and local government web resources and services.